Time;durP1;ratioP1;P1;durP2;ratioP2;P2;SDS_P1;SDS_P2;PMS_P1;PMS_P2;Temp;Humidity;BMP_temperature;BMP_pressure;BME280_temperature;BME280_humidity;BME280_pressure;Samples;Min_cycle;Max_cycle;Signal;HPM_P1;HPM_P2
2022/09/26 00:01:13;;;;;;;9.20;8.40;;;12.80;99.90;;;;;;5025739;28;20273;-87
2022/09/26 00:03:43;;;;;;;9.03;8.13;;;12.80;99.90;;;;;;5029644;28;20572;-88
2022/09/26 00:06:08;;;;;;;9.67;8.80;;;12.80;99.90;;;;;;5034712;28;20271;-88
2022/09/26 00:08:36;;;;;;;9.87;8.67;;;12.70;99.90;;;;;;5032228;28;20187;-88
2022/09/26 00:11:05;;;;;;;9.60;8.70;;;12.60;99.90;;;;;;5034405;28;20680;-88
2022/09/26 00:13:32;;;;;;;9.33;8.47;;;12.60;99.90;;;;;;5018630;28;20263;-88
2022/09/26 00:15:57;;;;;;;8.83;8.13;;;12.60;99.90;;;;;;5024519;28;20441;-88
2022/09/26 00:18:24;;;;;;;9.13;8.43;;;12.70;99.90;;;;;;5020757;28;20247;-88
2022/09/26 00:20:50;;;;;;;8.90;8.10;;;12.60;99.90;;;;;;5025335;28;20354;-88
2022/09/26 00:23:16;;;;;;;9.30;8.40;;;12.60;99.90;;;;;;5029036;28;20230;-89
2022/09/26 00:25:49;;;;;;;9.20;8.40;;;12.30;99.90;;;;;;5029350;28;20213;-88
2022/09/26 00:28:16;;;;;;;9.10;8.00;;;12.30;99.90;;;;;;5029737;28;20193;-88
2022/09/26 00:30:43;;;;;;;10.03;9.03;;;12.30;99.90;;;;;;5029350;28;20283;-89
2022/09/26 00:33:09;;;;;;;10.10;9.20;;;12.50;99.90;;;;;;5019108;28;20183;-88
2022/09/26 00:35:35;;;;;;;9.93;8.93;;;12.40;99.90;;;;;;5023494;28;20263;-88
2022/09/26 00:38:01;;;;;;;10.03;9.23;;;12.40;99.90;;;;;;5026592;28;20268;-88
2022/09/26 00:40:28;;;;;;;9.43;8.53;;;12.30;99.90;;;;;;5026717;28;20214;-88
2022/09/26 00:42:54;;;;;;;9.03;8.23;;;12.30;99.90;;;;;;5025893;28;20585;-89
2022/09/26 00:45:23;;;;;;;10.67;9.67;;;12.50;99.90;;;;;;5022560;28;20228;-88
2022/09/26 00:48:01;;;;;;;10.43;9.43;;;12.50;99.90;;;;;;5024067;28;20174;-88
2022/09/26 00:50:45;;;;;;;9.60;8.77;;;12.30;99.90;;;;;;5019741;28;20285;-89
2022/09/26 00:53:16;;;;;;;10.73;9.73;;;12.40;99.90;;;;;;5029220;28;20181;-88
2022/09/26 00:55:46;;;;;;;10.07;9.03;;;12.30;99.90;;;;;;5037049;28;20175;-86
2022/09/26 00:58:28;;;;;;;8.60;7.80;;;12.20;99.90;;;;;;5046639;28;20205;-86
2022/09/26 01:00:55;;;;;;;9.27;8.43;;;12.30;99.90;;;;;;5031392;28;20213;-88
2022/09/26 01:03:22;;;;;;;9.60;8.60;;;12.30;99.90;;;;;;5033552;28;20211;-88
2022/09/26 01:05:48;;;;;;;9.60;8.70;;;12.30;99.90;;;;;;5028624;28;20189;-88
2022/09/26 01:08:18;;;;;;;10.33;9.43;;;12.30;99.90;;;;;;5034320;28;20542;-89
2022/09/26 01:10:44;;;;;;;10.17;9.27;;;12.30;99.90;;;;;;5024929;28;20364;-89
2022/09/26 01:13:10;;;;;;;9.30;8.50;;;12.30;99.90;;;;;;5029747;28;20185;-88
2022/09/26 01:15:36;;;;;;;10.10;9.20;;;12.20;99.90;;;;;;5025845;28;20553;-88
2022/09/26 01:18:02;;;;;;;10.63;9.73;;;12.10;99.90;;;;;;5027229;28;20187;-89
2022/09/26 01:21:20;;;;;;;11.03;10.13;;;12.00;99.90;;;;;;5028202;28;20645;-88
2022/09/26 01:24:04;;;;;;;10.03;9.13;;;12.00;99.90;;;;;;4995532;28;20222;-88
2022/09/26 01:27:07;;;;;;;11.00;9.57;;;12.00;99.90;;;;;;5017372;28;20178;-88
2022/09/26 01:29:51;;;;;;;10.27;9.43;;;12.00;99.90;;;;;;5026076;28;20212;-88
2022/09/26 01:32:48;;;;;;;9.77;8.97;;;12.10;99.90;;;;;;5026549;28;20202;-89
2022/09/26 01:35:36;;;;;;;10.63;9.50;;;12.00;99.90;;;;;;5024670;28;20196;-88
2022/09/26 01:38:17;;;;;;;10.83;9.87;;;12.00;99.90;;;;;;5029144;28;20683;-88
2022/09/26 01:40:49;;;;;;;10.90;9.80;;;12.10;99.90;;;;;;5028498;28;20242;-88
2022/09/26 01:43:18;;;;;;;10.10;9.13;;;12.10;99.90;;;;;;5023744;28;20231;-88
2022/09/26 01:45:58;;;;;;;10.90;9.87;;;12.20;99.90;;;;;;5019641;28;20177;-88
2022/09/26 01:48:32;;;;;;;10.17;9.17;;;12.10;99.90;;;;;;5020053;28;20182;-89
2022/09/26 01:51:11;;;;;;;10.10;9.20;;;12.00;99.90;;;;;;5023591;28;20198;-89
2022/09/26 01:53:47;;;;;;;10.13;9.33;;;12.00;99.90;;;;;;5020059;28;20184;-87
2022/09/26 01:56:17;;;;;;;9.53;8.63;;;12.00;99.90;;;;;;5025267;28;20245;-88
2022/09/26 01:58:52;;;;;;;9.60;8.70;;;12.00;99.90;;;;;;5025868;28;20188;-87
2022/09/26 02:01:20;;;;;;;10.27;9.27;;;12.00;99.90;;;;;;5033010;28;20212;-88
2022/09/26 02:03:50;;;;;;;9.23;8.50;;;12.10;99.90;;;;;;5016417;28;20214;-89
2022/09/26 02:06:24;;;;;;;10.20;9.37;;;12.10;99.90;;;;;;5025949;28;20370;-89
2022/09/26 02:08:57;;;;;;;10.60;9.50;;;12.00;99.90;;;;;;5022295;28;20265;-88
2022/09/26 02:11:25;;;;;;;9.83;8.83;;;11.80;99.90;;;;;;5042169;28;20209;-87
2022/09/26 02:14:07;;;;;;;9.87;8.90;;;11.70;99.90;;;;;;5031321;28;20273;-89
2022/09/26 02:16:49;;;;;;;9.83;8.90;;;11.70;99.90;;;;;;5032560;28;20196;-87
2022/09/26 02:19:21;;;;;;;10.47;9.60;;;11.60;99.90;;;;;;5021294;28;20181;-88
2022/09/26 02:21:47;;;;;;;10.20;9.30;;;11.50;99.90;;;;;;5020056;28;20299;-88
2022/09/26 02:24:13;;;;;;;10.70;9.73;;;11.50;99.90;;;;;;5025272;28;20640;-88
2022/09/26 02:26:41;;;;;;;9.60;8.60;;;11.60;99.90;;;;;;5024974;28;20204;-88
2022/09/26 02:29:07;;;;;;;10.53;9.63;;;11.50;99.90;;;;;;5031083;28;20194;-89
2022/09/26 02:31:37;;;;;;;11.50;8.87;;;11.60;99.90;;;;;;5035457;28;20220;-88
2022/09/26 02:34:04;;;;;;;9.63;8.63;;;11.50;99.90;;;;;;5034075;28;20215;-89
2022/09/26 02:36:32;;;;;;;9.70;8.70;;;11.60;99.90;;;;;;5029993;28;20732;-89
2022/09/26 02:38:58;;;;;;;9.80;8.90;;;11.60;99.90;;;;;;5027094;28;20197;-88
2022/09/26 02:41:32;;;;;;;9.70;8.80;;;11.60;99.90;;;;;;5036823;28;20216;-89
2022/09/26 02:44:35;;;;;;;10.17;9.17;;;11.50;99.90;;;;;;5029725;28;20691;-88
2022/09/26 02:47:07;;;;;;;10.07;9.07;;;11.60;99.90;;;;;;5033169;28;20663;-89
2022/09/26 02:49:45;;;;;;;10.73;8.87;;;11.50;99.90;;;;;;5025271;28;20204;-89
2022/09/26 02:52:42;;;;;;;8.57;7.53;;;11.40;99.90;;;;;;5032519;28;20295;-88
2022/09/26 02:55:20;;;;;;;9.77;8.33;;;11.60;99.90;;;;;;5021302;28;20710;-88
2022/09/26 02:58:06;;;;;;;10.10;9.10;;;11.70;99.90;;;;;;5037938;28;20711;-87
2022/09/26 03:00:52;;;;;;;9.27;7.80;;;11.70;99.90;;;;;;5037717;28;20181;-87
2022/09/26 03:03:23;;;;;;;9.37;8.57;;;11.60;99.90;;;;;;5038357;28;20209;-88
2022/09/26 03:05:52;;;;;;;9.80;8.80;;;11.70;99.90;;;;;;5033468;28;20203;-88
2022/09/26 03:08:26;;;;;;;8.80;8.00;;;11.70;99.90;;;;;;5032473;28;20204;-88
2022/09/26 03:10:57;;;;;;;9.77;8.67;;;11.80;99.90;;;;;;5046028;28;20193;-86
2022/09/26 03:13:25;;;;;;;10.07;9.17;;;11.80;99.90;;;;;;5040132;28;20193;-86
2022/09/26 03:15:54;;;;;;;11.10;10.00;;;11.80;99.90;;;;;;5049156;28;20197;-86
2022/09/26 03:18:27;;;;;;;11.43;10.33;;;11.80;99.90;;;;;;5033217;28;20642;-88
2022/09/26 03:20:53;;;;;;;11.23;10.13;;;11.80;99.90;;;;;;5028173;28;20213;-89
2022/09/26 03:23:23;;;;;;;13.73;11.07;;;11.90;99.90;;;;;;5022376;28;20202;-89
2022/09/26 03:26:03;;;;;;;12.17;11.07;;;11.80;99.90;;;;;;5024634;28;20192;-88
2022/09/26 03:28:28;;;;;;;12.23;11.17;;;11.70;99.90;;;;;;5028145;28;20315;-88
2022/09/26 03:30:54;;;;;;;16.83;13.10;;;11.60;99.90;;;;;;5027304;28;20756;-88
2022/09/26 03:33:20;;;;;;;14.50;13.00;;;11.70;99.90;;;;;;5029093;28;20200;-88
2022/09/26 03:35:46;;;;;;;15.67;14.07;;;11.70;99.90;;;;;;5027306;28;20216;-88
2022/09/26 03:38:11;;;;;;;15.23;13.73;;;11.70;99.90;;;;;;5028570;28;20203;-88
2022/09/26 03:40:39;;;;;;;16.77;15.07;;;11.60;99.90;;;;;;5026957;28;20196;-88
2022/09/26 03:43:05;;;;;;;16.67;15.07;;;11.40;99.90;;;;;;5034355;28;20195;-88
2022/09/26 03:45:31;;;;;;;16.10;14.50;;;11.50;99.90;;;;;;5037601;28;20180;-87
2022/09/26 03:47:57;;;;;;;17.07;15.30;;;11.40;99.90;;;;;;5045835;28;20196;-86
2022/09/26 03:50:23;;;;;;;16.93;15.33;;;11.50;99.90;;;;;;5035918;28;20208;-88
2022/09/26 03:52:49;;;;;;;15.97;14.43;;;11.50;99.90;;;;;;5020782;28;20227;-88
2022/09/26 03:55:15;;;;;;;14.83;13.30;;;11.50;99.90;;;;;;5022338;28;20192;-88
2022/09/26 03:57:40;;;;;;;14.37;12.87;;;11.50;99.90;;;;;;5026201;28;20188;-87
2022/09/26 04:00:06;;;;;;;13.33;12.13;;;11.50;99.90;;;;;;5027345;28;20184;-89
2022/09/26 04:02:33;;;;;;;14.27;12.87;;;11.60;99.90;;;;;;5025802;28;20616;-89
2022/09/26 04:04:59;;;;;;;13.00;11.80;;;11.60;99.90;;;;;;5020874;28;20221;-89
2022/09/26 04:07:24;;;;;;;15.37;12.67;;;11.60;99.90;;;;;;5014064;28;20198;-88
2022/09/26 04:09:50;;;;;;;12.93;11.83;;;11.60;99.90;;;;;;5017813;28;20190;-88
2022/09/26 04:12:16;;;;;;;12.93;11.73;;;11.50;99.90;;;;;;5018890;28;20702;-89
2022/09/26 04:14:45;;;;;;;12.77;11.50;;;11.40;99.90;;;;;;5021064;28;20753;-89
2022/09/26 04:17:11;;;;;;;12.90;11.70;;;11.40;99.90;;;;;;5026122;28;20227;-88
2022/09/26 04:19:37;;;;;;;13.10;11.80;;;11.60;99.90;;;;;;5026534;28;20590;-88
2022/09/26 04:22:06;;;;;;;12.57;11.27;;;11.50;99.90;;;;;;5023498;28;20216;-89
2022/09/26 04:24:32;;;;;;;11.70;10.50;;;11.50;99.90;;;;;;5015508;28;20276;-89
2022/09/26 04:26:59;;;;;;;11.43;10.17;;;11.50;99.90;;;;;;5016595;28;20228;-89
2022/09/26 04:29:26;;;;;;;10.77;9.77;;;11.40;99.90;;;;;;5021676;28;20225;-87
2022/09/26 04:31:52;;;;;;;11.33;10.23;;;11.50;99.90;;;;;;5025045;28;20216;-89
2022/09/26 04:34:18;;;;;;;11.27;10.27;;;11.40;99.90;;;;;;5023564;28;20196;-89
2022/09/26 04:36:43;;;;;;;11.20;10.13;;;11.50;99.90;;;;;;5021389;28;20550;-89
2022/09/26 04:39:09;;;;;;;9.50;8.70;;;11.60;99.90;;;;;;5026564;28;20189;-88
2022/09/26 04:41:36;;;;;;;11.40;10.30;;;11.70;99.90;;;;;;5023455;28;20243;-88
2022/09/26 04:44:02;;;;;;;12.43;11.03;;;11.70;99.90;;;;;;5027879;28;20201;-89
2022/09/26 04:46:28;;;;;;;11.07;10.13;;;11.80;99.90;;;;;;5019928;28;20565;-88
2022/09/26 04:48:56;;;;;;;11.53;10.43;;;11.80;99.90;;;;;;5022741;28;20177;-89
2022/09/26 04:51:24;;;;;;;11.40;10.40;;;11.80;99.90;;;;;;5022298;28;20676;-89
2022/09/26 04:53:50;;;;;;;9.20;8.47;;;11.80;99.90;;;;;;5017422;28;20236;-88
2022/09/26 04:56:19;;;;;;;14.57;10.27;;;11.70;99.90;;;;;;5020742;28;20212;-89
2022/09/26 04:58:45;;;;;;;10.60;9.70;;;11.60;99.90;;;;;;5023870;28;20186;-89
2022/09/26 05:01:13;;;;;;;12.83;9.07;;;11.40;99.90;;;;;;5021374;28;20206;-89
2022/09/26 05:03:40;;;;;;;19.60;9.03;;;11.40;99.90;;;;;;5021307;28;20620;-89
2022/09/26 05:06:07;;;;;;;11.03;8.90;;;11.40;99.90;;;;;;5028852;28;20478;-89
2022/09/26 05:08:34;;;;;;;9.20;8.50;;;11.40;99.90;;;;;;5022155;28;20175;-89
2022/09/26 05:11:01;;;;;;;10.17;7.83;;;11.40;99.90;;;;;;5025885;28;20570;-89
2022/09/26 05:13:27;;;;;;;10.67;8.30;;;11.40;99.90;;;;;;5020355;28;20603;-88
2022/09/26 05:15:54;;;;;;;11.10;7.80;;;11.40;99.90;;;;;;5029356;28;20562;-89
2022/09/26 05:18:25;;;;;;;8.07;7.37;;;11.50;99.90;;;;;;5017435;28;20190;-88
2022/09/26 05:20:51;;;;;;;9.03;7.80;;;11.50;99.90;;;;;;5015622;28;20193;-88
2022/09/26 05:26:21;;;;;;;7.63;7.07;;;11.50;99.90;;;;;;5020999;28;20188;-89
2022/09/26 05:28:54;;;;;;;7.37;6.80;;;11.60;99.90;;;;;;5019565;28;20206;-88
2022/09/26 05:31:22;;;;;;;7.70;6.90;;;11.70;99.90;;;;;;5026929;28;20219;-89
2022/09/26 05:33:49;;;;;;;7.73;7.03;;;11.60;99.90;;;;;;5028134;28;20650;-89
2022/09/26 05:36:16;;;;;;;8.77;7.23;;;11.50;99.90;;;;;;5028251;28;20279;-88
2022/09/26 05:38:42;;;;;;;7.83;7.13;;;11.50;99.90;;;;;;5021874;28;20193;-89
2022/09/26 05:41:08;;;;;;;7.97;7.33;;;11.60;99.90;;;;;;5018498;28;20584;-88
2022/09/26 05:43:33;;;;;;;8.47;7.57;;;11.40;99.90;;;;;;5026493;28;20626;-89
2022/09/26 05:46:08;;;;;;;7.67;6.97;;;11.40;99.90;;;;;;5030543;28;20188;-88
2022/09/26 05:48:36;;;;;;;12.43;8.00;;;11.50;99.90;;;;;;5029507;28;20200;-89
2022/09/26 05:51:05;;;;;;;9.20;8.40;;;11.50;99.90;;;;;;5018600;28;20474;-88
2022/09/26 05:53:31;;;;;;;9.03;8.23;;;11.40;99.90;;;;;;5031378;28;20271;-89
2022/09/26 05:55:57;;;;;;;9.50;8.60;;;11.40;99.90;;;;;;5021990;28;20182;-89
2022/09/26 05:58:23;;;;;;;9.30;8.37;;;11.40;99.90;;;;;;5017619;28;20292;-89
2022/09/26 06:00:49;;;;;;;9.23;8.43;;;11.40;99.90;;;;;;5027713;28;20468;-89
2022/09/26 06:03:15;;;;;;;11.17;7.97;;;11.20;99.90;;;;;;5022292;28;20185;-89
2022/09/26 06:05:41;;;;;;;9.57;8.60;;;11.30;99.90;;;;;;5025614;28;20196;-90
2022/09/26 06:08:08;;;;;;;8.77;7.93;;;11.20;99.90;;;;;;5024015;28;20200;-89
2022/09/26 06:10:35;;;;;;;10.80;7.53;;;11.30;99.90;;;;;;4999267;28;20190;-88
2022/09/26 06:13:01;;;;;;;8.97;8.17;;;11.40;99.90;;;;;;5016520;28;20276;-88
2022/09/26 06:15:28;;;;;;;8.43;7.70;;;11.20;99.90;;;;;;5021318;28;20960;-89
2022/09/26 06:18:05;;;;;;;8.43;7.63;;;11.20;99.90;;;;;;5024007;28;20247;-88
2022/09/26 06:20:32;;;;;;;8.50;7.73;;;11.20;99.90;;;;;;5027217;28;20219;-88
2022/09/26 06:23:00;;;;;;;8.27;7.57;;;11.20;99.90;;;;;;5025263;28;20215;-88
2022/09/26 06:25:27;;;;;;;8.00;7.20;;;11.20;99.90;;;;;;5026267;28;20215;-89
2022/09/26 06:27:56;;;;;;;7.53;6.90;;;11.00;99.90;;;;;;5019580;28;20188;-88
2022/09/26 06:30:23;;;;;;;7.77;7.07;;;10.90;99.90;;;;;;5026752;28;20674;-88
2022/09/26 06:32:52;;;;;;;8.07;7.27;;;10.80;99.90;;;;;;5016577;28;20210;-88
2022/09/26 06:35:20;;;;;;;7.70;7.03;;;10.70;99.90;;;;;;5027242;28;20190;-88
2022/09/26 06:37:45;;;;;;;7.70;6.93;;;10.70;99.90;;;;;;5029502;28;20194;-89
2022/09/26 06:40:11;;;;;;;7.10;6.50;;;10.70;99.90;;;;;;5030402;28;20326;-88
2022/09/26 06:42:37;;;;;;;7.53;6.43;;;10.80;99.90;;;;;;5019394;28;20295;-89
2022/09/26 06:45:08;;;;;;;7.70;6.90;;;10.80;99.90;;;;;;5029672;28;20275;-89
2022/09/26 06:47:34;;;;;;;8.40;6.40;;;10.80;99.90;;;;;;5022675;28;20565;-90
2022/09/26 06:50:01;;;;;;;6.93;6.33;;;10.80;99.90;;;;;;5014520;28;20184;-88
2022/09/26 06:52:33;;;;;;;6.40;5.90;;;10.90;99.90;;;;;;5026744;28;20207;-88
2022/09/26 06:55:01;;;;;;;6.60;6.00;;;10.90;99.90;;;;;;5028795;28;20185;-87
2022/09/26 06:57:27;;;;;;;7.53;6.07;;;10.90;99.90;;;;;;5044222;28;20230;-87
2022/09/26 06:59:53;;;;;;;7.30;6.70;;;10.90;99.90;;;;;;5047820;28;20202;-87
2022/09/26 07:02:18;;;;;;;7.47;5.87;;;11.00;99.90;;;;;;5034833;28;20201;-87
2022/09/26 07:04:45;;;;;;;6.27;5.40;;;11.10;99.90;;;;;;5033393;28;20216;-89
2022/09/26 07:07:10;;;;;;;7.27;6.50;;;11.10;99.90;;;;;;5026833;28;20213;-88
2022/09/26 07:09:36;;;;;;;7.07;6.47;;;10.90;99.90;;;;;;5033883;28;20275;-88
2022/09/26 07:12:02;;;;;;;6.50;5.90;;;11.10;99.90;;;;;;5023630;28;20730;-88
2022/09/26 07:14:27;;;;;;;7.63;6.10;;;11.10;99.90;;;;;;5025670;28;20202;-89
2022/09/26 07:16:53;;;;;;;6.97;5.93;;;11.20;99.90;;;;;;5033183;28;20200;-89
2022/09/26 07:19:19;;;;;;;8.57;6.27;;;11.10;99.90;;;;;;5025142;28;20207;-88
2022/09/26 07:21:46;;;;;;;8.17;6.70;;;11.10;99.90;;;;;;5023946;28;20226;-89
2022/09/26 07:24:13;;;;;;;8.80;7.17;;;11.20;99.90;;;;;;5021422;28;20212;-88
2022/09/26 07:26:40;;;;;;;7.23;6.63;;;11.40;99.90;;;;;;5023294;28;20183;-89
2022/09/26 07:29:06;;;;;;;7.67;6.97;;;11.60;99.90;;;;;;5022499;28;20230;-87
2022/09/26 07:31:32;;;;;;;7.67;6.90;;;11.70;99.90;;;;;;5026568;28;20216;-89
2022/09/26 07:33:57;;;;;;;8.93;8.03;;;11.80;99.90;;;;;;5026753;28;20668;-87
2022/09/26 07:36:23;;;;;;;9.33;7.33;;;11.80;99.90;;;;;;5027267;28;20200;-90
2022/09/26 07:38:49;;;;;;;8.23;6.40;;;11.80;99.90;;;;;;5019050;28;20343;-87
2022/09/26 07:41:15;;;;;;;7.70;6.90;;;11.70;99.90;;;;;;5027108;28;20227;-89
2022/09/26 07:43:40;;;;;;;7.57;6.20;;;11.70;99.90;;;;;;5024470;28;20224;-87
2022/09/26 07:51:37;;;;;;;6.43;5.83;;;12.00;99.90;;;;;;5024634;28;20692;-90
2022/09/26 07:54:02;;;;;;;7.43;6.73;;;12.10;99.90;;;;;;5029773;28;20242;-88
2022/09/26 07:56:32;;;;;;;7.43;6.07;;;12.10;99.90;;;;;;5019400;28;20196;-87
2022/09/26 07:59:00;;;;;;;7.00;6.40;;;12.10;99.90;;;;;;5010614;28;20203;-88
2022/09/26 08:01:28;;;;;;;8.43;6.50;;;12.10;99.90;;;;;;5022794;28;20267;-87
2022/09/26 08:03:57;;;;;;;7.73;7.03;;;12.20;99.90;;;;;;5028928;28;20212;-90
2022/09/26 08:06:24;;;;;;;6.90;6.30;;;12.30;99.90;;;;;;5033331;28;20189;-88
2022/09/26 08:08:54;;;;;;;6.80;6.27;;;12.50;99.90;;;;;;5024159;28;20188;-88
2022/09/26 08:11:20;;;;;;;7.70;6.63;;;12.70;99.90;;;;;;5021521;28;20565;-88
2022/09/26 08:13:46;;;;;;;8.40;7.07;;;12.70;99.90;;;;;;5027469;28;20189;-87
2022/09/26 08:16:22;;;;;;;7.47;6.87;;;12.80;99.90;;;;;;5027182;28;20226;-86
2022/09/26 08:18:49;;;;;;;6.87;6.23;;;12.80;99.90;;;;;;5024228;28;20556;-89
2022/09/26 08:21:15;;;;;;;6.73;6.10;;;12.80;99.90;;;;;;5031443;28;20207;-86
2022/09/26 08:23:40;;;;;;;9.20;6.90;;;12.80;99.90;;;;;;5035847;28;20215;-87
2022/09/26 08:26:06;;;;;;;7.80;7.10;;;12.90;99.90;;;;;;5028051;28;20632;-87
2022/09/26 08:28:36;;;;;;;6.37;5.87;;;13.00;99.90;;;;;;5030751;28;20265;-87
2022/09/26 08:31:03;;;;;;;7.37;6.37;;;13.10;99.90;;;;;;5030767;28;20262;-86
2022/09/26 08:33:34;;;;;;;7.20;6.50;;;13.00;99.90;;;;;;5032844;28;20192;-87
2022/09/26 08:36:14;;;;;;;6.77;6.07;;;13.00;99.90;;;;;;5021756;28;20200;-87
2022/09/26 08:38:40;;;;;;;6.87;6.20;;;13.20;99.90;;;;;;5028211;28;20597;-87
2022/09/26 08:41:33;;;;;;;6.67;6.00;;;13.40;99.90;;;;;;5030214;28;20209;-86
2022/09/26 08:44:37;;;;;;;7.10;5.80;;;13.50;99.90;;;;;;5029882;28;20246;-87
2022/09/26 08:47:05;;;;;;;6.57;5.97;;;13.60;99.90;;;;;;5028331;28;20573;-88
2022/09/26 08:49:41;;;;;;;7.90;6.80;;;13.70;99.90;;;;;;5028346;28;20211;-87
2022/09/26 08:52:43;;;;;;;6.93;6.23;;;13.70;99.90;;;;;;5023702;28;20204;-88
2022/09/26 08:55:16;;;;;;;7.10;6.40;;;13.80;99.90;;;;;;5025343;28;20588;-87
2022/09/26 08:57:49;;;;;;;6.37;5.77;;;14.00;99.90;;;;;;5023528;28;20238;-88
2022/09/26 09:00:21;;;;;;;6.80;6.03;;;14.10;99.90;;;;;;5031946;28;20208;-88
2022/09/26 09:03:05;;;;;;;5.67;5.17;;;14.40;99.90;;;;;;5023311;28;20221;-87
2022/09/26 09:05:38;;;;;;;5.90;4.77;;;14.40;99.60;;;;;;5028031;28;20212;-86
2022/09/26 09:08:11;;;;;;;5.87;5.33;;;14.30;99.90;;;;;;5023878;28;20189;-87
2022/09/26 09:10:53;;;;;;;5.17;4.77;;;14.40;99.70;;;;;;5037273;28;20172;-88
2022/09/26 09:13:47;;;;;;;5.17;4.73;;;14.70;98.70;;;;;;5033936;28;20180;-89
2022/09/26 09:16:18;;;;;;;5.20;4.70;;;14.90;98.00;;;;;;5027405;28;20179;-87
2022/09/26 09:19:07;;;;;;;4.63;4.23;;;15.20;96.60;;;;;;5025350;28;20196;-87
2022/09/26 09:21:59;;;;;;;4.60;4.20;;;14.90;95.00;;;;;;5025708;28;20662;-87
2022/09/26 09:24:28;;;;;;;5.03;4.30;;;14.80;93.90;;;;;;5031954;28;20538;-88
2022/09/26 09:27:13;;;;;;;4.87;4.47;;;14.90;95.80;;;;;;5048594;28;20204;-90
2022/09/26 09:30:09;;;;;;;5.93;5.33;;;15.10;96.20;;;;;;5043804;28;20251;-87
2022/09/26 09:33:03;;;;;;;6.87;4.20;;;15.40;93.60;;;;;;5029818;28;20276;-87
2022/09/26 09:35:38;;;;;;;5.77;4.23;;;15.90;92.70;;;;;;5028515;28;20188;-86
2022/09/26 09:38:09;;;;;;;4.30;3.90;;;15.60;92.80;;;;;;5034825;28;20188;-87
2022/09/26 09:40:37;;;;;;;4.90;4.20;;;15.40;88.70;;;;;;5032445;28;20180;-87
2022/09/26 09:43:30;;;;;;;5.37;3.83;;;15.20;89.90;;;;;;5034455;28;20189;-86
2022/09/26 09:46:09;;;;;;;4.27;3.97;;;15.10;87.70;;;;;;5031061;28;20181;-87
2022/09/26 09:48:34;;;;;;;3.70;3.40;;;15.30;92.90;;;;;;5024101;28;20238;-87
2022/09/26 09:51:30;;;;;;;4.30;3.43;;;15.60;89.00;;;;;;5032201;28;20213;-88
2022/09/26 09:53:59;;;;;;;4.77;3.30;;;15.70;88.90;;;;;;5022984;28;20181;-87
2022/09/26 09:56:40;;;;;;;6.67;2.97;;;15.70;87.00;;;;;;5024466;28;20192;-86
2022/09/26 09:59:23;;;;;;;3.67;3.37;;;15.40;85.50;;;;;;5030131;28;20200;-87
2022/09/26 10:02:09;;;;;;;4.83;3.57;;;15.80;82.90;;;;;;5025452;28;20670;-87
2022/09/26 10:04:45;;;;;;;3.10;2.80;;;16.10;83.50;;;;;;5030537;28;20223;-88
2022/09/26 10:07:11;;;;;;;6.33;3.47;;;16.30;82.10;;;;;;5033890;28;20205;-86
2022/09/26 10:09:42;;;;;;;4.97;3.30;;;16.10;83.70;;;;;;5029840;28;20283;-87
2022/09/26 10:12:16;;;;;;;4.33;3.77;;;15.80;86.30;;;;;;5035454;28;20208;-87
2022/09/26 10:14:59;;;;;;;3.93;3.53;;;15.60;87.60;;;;;;5034629;28;20195;-86
2022/09/26 10:17:24;;;;;;;5.27;4.30;;;15.30;89.50;;;;;;5030471;28;20177;-88
2022/09/26 10:19:50;;;;;;;4.17;3.77;;;14.90;94.60;;;;;;5037028;28;20196;-89
2022/09/26 10:22:36;;;;;;;4.50;3.77;;;14.80;95.90;;;;;;5032258;28;20213;-90
2022/09/26 10:25:14;;;;;;;4.23;3.33;;;14.50;99.20;;;;;;5036623;28;20202;-88
2022/09/26 10:27:47;;;;;;;7.97;3.80;;;14.20;96.90;;;;;;5025371;28;20182;-88
2022/09/26 10:30:19;;;;;;;4.43;3.90;;;14.30;98.30;;;;;;5026901;28;20181;-88
2022/09/26 10:32:50;;;;;;;5.50;4.80;;;14.50;98.30;;;;;;5025569;28;20686;-88
2022/09/26 10:35:19;;;;;;;10.13;4.43;;;14.70;99.90;;;;;;5032317;28;20240;-90
2022/09/26 10:38:04;;;;;;;6.67;4.37;;;14.80;99.90;;;;;;5027931;28;20211;-88
2022/09/26 10:40:45;;;;;;;5.83;4.43;;;14.80;99.30;;;;;;5026632;28;20193;-89
2022/09/26 10:43:31;;;;;;;4.17;3.80;;;14.80;99.90;;;;;;5032317;28;20427;-89
2022/09/26 10:46:17;;;;;;;7.90;4.37;;;15.00;99.90;;;;;;5034743;28;20265;-89
2022/09/26 10:48:47;;;;;;;4.10;3.70;;;15.10;99.90;;;;;;5033782;28;20203;-88
2022/09/26 10:51:16;;;;;;;4.97;3.90;;;15.10;97.00;;;;;;5033042;28;20197;-88
2022/09/26 10:53:44;;;;;;;4.17;3.43;;;15.00;96.90;;;;;;5034207;28;20176;-89
2022/09/26 10:56:19;;;;;;;3.97;3.30;;;14.80;97.30;;;;;;5028030;28;20196;-88
2022/09/26 10:58:45;;;;;;;4.00;3.70;;;14.90;98.60;;;;;;5028150;28;20196;-88
2022/09/26 11:01:25;;;;;;;4.07;3.60;;;14.90;98.90;;;;;;5029096;28;20296;-88
2022/09/26 11:03:54;;;;;;;4.90;4.40;;;15.00;99.90;;;;;;5029422;28;20551;-87
2022/09/26 11:06:24;;;;;;;4.60;3.60;;;15.10;98.60;;;;;;5036380;28;20188;-88
2022/09/26 11:08:56;;;;;;;3.40;3.10;;;15.10;99.70;;;;;;5041095;28;20150;-89
2022/09/26 11:11:22;;;;;;;3.70;3.40;;;15.10;97.80;;;;;;5052508;28;20211;-90
2022/09/26 11:14:06;;;;;;;4.10;3.70;;;15.10;97.90;;;;;;5043210;28;20196;-88
2022/09/26 11:16:53;;;;;;;3.27;3.07;;;15.10;98.40;;;;;;5036315;28;20211;-88
2022/09/26 11:19:39;;;;;;;4.90;3.43;;;15.00;98.70;;;;;;5028261;28;20178;-88
2022/09/26 11:22:24;;;;;;;5.80;4.03;;;14.60;99.90;;;;;;5029982;28;20211;-89
2022/09/26 11:25:11;;;;;;;4.83;3.60;;;14.60;99.90;;;;;;5032754;28;20234;-88
2022/09/26 11:28:08;;;;;;;4.27;2.80;;;14.50;99.50;;;;;;5044310;28;20192;-91
2022/09/26 11:30:46;;;;;;;4.00;3.20;;;14.30;91.60;;;;;;5042180;28;20598;-88
2022/09/26 11:33:16;;;;;;;3.97;2.77;;;14.10;96.80;;;;;;5044910;28;20185;-88
2022/09/26 11:36:27;;;;;;;2.50;2.30;;;14.10;95.10;;;;;;5039451;28;20180;-90
2022/09/26 11:38:58;;;;;;;3.57;2.20;;;13.50;96.40;;;;;;4987166;28;20362;-88
2022/09/26 11:41:42;;;;;;;3.43;1.90;;;13.30;99.20;;;;;;5049260;28;20348;-87
2022/09/26 11:44:28;;;;;;;3.00;2.23;;;13.00;99.90;;;;;;5038097;28;20196;-87
2022/09/26 11:47:35;;;;;;;2.63;2.20;;;12.90;99.90;;;;;;5041455;28;20644;-88
2022/09/26 11:50:01;;;;;;;2.67;2.40;;;12.90;99.90;;;;;;5030613;28;20193;-86
2022/09/26 11:52:47;;;;;;;2.63;2.43;;;13.00;99.90;;;;;;5031874;28;20741;-87
2022/09/26 11:55:56;;;;;;;2.80;2.50;;;13.10;99.90;;;;;;5036212;28;20209;-87
2022/09/26 11:59:05;;;;;;;4.23;2.37;;;13.20;99.90;;;;;;5036548;28;20183;-87
2022/09/26 12:01:41;;;;;;;4.17;2.63;;;13.30;99.90;;;;;;5038370;28;20202;-87
2022/09/26 12:04:40;;;;;;;2.77;2.53;;;13.30;99.90;;;;;;5038958;28;20212;-86
2022/09/26 12:07:32;;;;;;;3.57;2.67;;;13.40;99.90;;;;;;5040515;28;20189;-87
2022/09/26 12:10:16;;;;;;;3.20;2.90;;;13.30;99.90;;;;;;5035936;28;20198;-89
2022/09/26 12:12:48;;;;;;;3.57;2.90;;;13.40;99.90;;;;;;5040882;28;20216;-89
2022/09/26 12:15:33;;;;;;;5.73;3.30;;;13.40;99.90;;;;;;5047312;28;20191;-89
2022/09/26 12:18:22;;;;;;;4.53;3.27;;;13.30;99.90;;;;;;5050138;28;20178;-86
2022/09/26 12:21:38;;;;;;;4.83;3.20;;;13.00;99.90;;;;;;5039570;28;20183;-85
2022/09/26 12:24:25;;;;;;;6.03;3.60;;;13.00;99.90;;;;;;5040585;28;20304;-85
2022/09/26 12:27:02;;;;;;;3.13;2.70;;;12.70;99.90;;;;;;5032407;28;20708;-87
2022/09/26 12:29:48;;;;;;;4.23;2.90;;;12.60;99.90;;;;;;5033771;28;20292;-85
2022/09/26 12:33:05;;;;;;;3.10;2.80;;;12.70;99.90;;;;;;5039149;28;20197;-86
2022/09/26 12:35:48;;;;;;;5.10;3.23;;;12.80;99.90;;;;;;5029058;28;20292;-86
2022/09/26 12:38:32;;;;;;;3.60;3.30;;;12.80;99.90;;;;;;5044665;28;20192;-88
2022/09/26 12:41:21;;;;;;;4.20;3.77;;;13.00;99.90;;;;;;5039535;28;20261;-86
2022/09/26 12:44:06;;;;;;;6.03;3.77;;;13.10;99.90;;;;;;5039463;28;20208;-86
2022/09/26 12:46:44;;;;;;;5.13;2.70;;;13.30;99.90;;;;;;5041988;28;20176;-86
2022/09/26 12:49:25;;;;;;;2.60;2.40;;;13.30;99.90;;;;;;5039577;28;20190;-86
2022/09/26 12:51:54;;;;;;;2.27;2.07;;;13.40;99.90;;;;;;5036434;28;20229;-87
2022/09/26 12:54:52;;;;;;;2.67;2.30;;;13.50;99.90;;;;;;5034521;28;20195;-87
2022/09/26 12:57:37;;;;;;;3.67;2.57;;;13.90;99.90;;;;;;5025280;28;20208;-87
2022/09/26 13:00:17;;;;;;;2.80;2.37;;;14.30;99.90;;;;;;5040344;28;20203;-86
2022/09/26 13:03:25;;;;;;;3.10;2.90;;;14.40;98.70;;;;;;5034664;28;20657;-87
2022/09/26 13:06:15;;;;;;;3.07;2.87;;;14.60;99.20;;;;;;5038045;28;20551;-86
2022/09/26 13:09:04;;;;;;;4.60;3.27;;;14.70;99.90;;;;;;5037466;28;20177;-86
2022/09/26 13:11:47;;;;;;;5.63;3.30;;;14.80;99.90;;;;;;5037317;28;20209;-88
2022/09/26 13:14:33;;;;;;;4.47;3.40;;;14.90;99.90;;;;;;5041146;28;20186;-87
2022/09/26 13:17:23;;;;;;;3.07;2.87;;;15.30;99.90;;;;;;5036273;28;20196;-87
2022/09/26 13:19:58;;;;;;;3.77;2.93;;;15.50;97.80;;;;;;5032234;28;20191;-86
2022/09/26 13:22:26;;;;;;;3.20;2.90;;;15.60;92.90;;;;;;5031949;28;20231;-87
2022/09/26 13:25:04;;;;;;;3.37;2.80;;;15.50;95.10;;;;;;5031732;28;20690;-86